Time;durP1;ratioP1;P1;durP2;ratioP2;P2;SDS_P1;SDS_P2;PMS_P1;PMS_P2;Temp;Humidity;BMP_temperature;BMP_pressure;BME280_temperature;BME280_humidity;BME280_pressure;Samples;Min_cycle;Max_cycle;Signal;HPM_P1;HPM_P2
2022/01/23 00:00:45;;;;;;;9.13;3.47;;;6.70;99.90;;;;;;5049841;28;20041;-69
2022/01/23 00:03:17;;;;;;;12.75;4.00;;;6.70;99.90;;;;;;5044468;28;20052;-68
2022/01/23 00:05:45;;;;;;;8.98;4.53;;;6.70;99.90;;;;;;5055034;28;20049;-68
2022/01/23 00:08:13;;;;;;;8.25;3.85;;;6.70;99.90;;;;;;5048725;28;20120;-69
2022/01/23 00:10:40;;;;;;;7.10;3.38;;;6.70;99.90;;;;;;5049635;28;20045;-69
2022/01/23 00:13:09;;;;;;;11.15;3.67;;;6.70;99.90;;;;;;5049143;28;20408;-69
2022/01/23 00:18:20;;;;;;;9.82;3.90;;;6.70;99.90;;;;;;5044173;28;20085;-68
2022/01/23 00:20:47;;;;;;;9.15;3.70;;;6.80;99.90;;;;;;5046413;28;20055;-69
2022/01/23 00:23:27;;;;;;;9.77;4.18;;;6.70;99.90;;;;;;5040206;28;20087;-69
2022/01/23 00:31:22;;;;;;;11.07;4.05;;;6.70;99.90;;;;;;5049873;28;20073;-68
2022/01/23 00:33:48;;;;;;;8.43;3.70;;;6.70;99.90;;;;;;5025993;28;20041;-68
2022/01/23 00:36:14;;;;;;;9.68;3.70;;;6.80;99.90;;;;;;5048692;28;20088;-68
2022/01/23 00:38:40;;;;;;;8.52;4.40;;;6.70;99.90;;;;;;5049387;28;20596;-69
2022/01/23 00:41:05;;;;;;;10.60;3.70;;;6.70;99.90;;;;;;5046393;28;20128;-68
2022/01/23 00:43:34;;;;;;;10.32;4.20;;;6.70;99.90;;;;;;5049141;28;20390;-69
2022/01/23 00:51:28;;;;;;;8.77;3.85;;;6.80;99.90;;;;;;5033522;28;20374;-68
2022/01/23 00:53:54;;;;;;;10.27;3.58;;;6.80;99.90;;;;;;5049138;28;20257;-69
2022/01/23 00:56:20;;;;;;;8.93;3.67;;;6.70;99.90;;;;;;5047820;28;20057;-69
2022/01/23 00:58:46;;;;;;;14.25;4.03;;;6.80;99.90;;;;;;5046869;28;20060;-68
2022/01/23 01:01:12;;;;;;;8.65;3.33;;;6.80;99.90;;;;;;5046922;28;20060;-68
2022/01/23 01:03:38;;;;;;;7.93;3.92;;;6.80;99.90;;;;;;5045751;28;20478;-68
2022/01/23 01:06:04;;;;;;;6.35;3.60;;;6.80;99.90;;;;;;5048453;28;20067;-68
2022/01/23 01:08:30;;;;;;;7.82;3.90;;;6.80;99.90;;;;;;5047708;28;20135;-68
2022/01/23 01:11:14;;;;;;;8.77;3.60;;;6.80;99.90;;;;;;5048902;28;20112;-68
2022/01/23 01:32:49;;;;;;;7.97;4.07;;;6.80;99.90;;;;;;5046519;28;20412;-68
2022/01/23 01:35:26;;;;;;;8.43;4.00;;;6.90;99.90;;;;;;5015925;28;20128;-68
2022/01/23 01:37:52;;;;;;;10.07;4.15;;;6.80;99.90;;;;;;5046539;28;20102;-69
2022/01/23 01:40:20;;;;;;;11.20;4.30;;;6.70;99.90;;;;;;5048502;28;20041;-68
2022/01/23 01:42:46;;;;;;;16.73;4.45;;;6.70;99.90;;;;;;5026462;28;20056;-69
2022/01/23 01:45:12;;;;;;;9.98;4.10;;;7.30;99.90;;;;;;5026956;28;20429;-68
2022/01/23 01:47:46;;;;;;;11.45;3.90;;;6.80;99.90;;;;;;5043093;28;20072;-69
2022/01/23 01:50:12;;;;;;;10.65;4.57;;;6.80;99.90;;;;;;5031783;28;20455;-68
2022/01/23 01:52:38;;;;;;;11.30;4.35;;;6.70;99.90;;;;;;5046383;28;20083;-68
2022/01/23 01:55:07;;;;;;;8.80;4.22;;;6.70;99.90;;;;;;5042389;28;20148;-69
2022/01/23 01:57:39;;;;;;;10.23;4.20;;;6.70;99.90;;;;;;5041060;28;20509;-68
2022/01/23 02:02:47;;;;;;;9.50;5.07;;;6.60;99.90;;;;;;5049451;28;20045;-68
2022/01/23 02:10:46;;;;;;;14.77;4.78;;;6.60;99.90;;;;;;5052996;28;20045;-68
2022/01/23 02:13:15;;;;;;;8.82;4.70;;;6.70;99.90;;;;;;5053864;28;20352;-68
2022/01/23 02:16:16;;;;;;;8.63;4.93;;;6.60;99.90;;;;;;5052703;28;20059;-68
2022/01/23 02:51:09;;;;;;;10.00;4.68;;;6.70;99.90;;;;;;5058297;28;20044;-68
2022/01/23 02:53:52;;;;;;;9.93;4.82;;;6.60;99.90;;;;;;5057782;28;20049;-68
2022/01/23 02:56:21;;;;;;;10.32;4.85;;;6.60;99.90;;;;;;5056154;28;20137;-67
2022/01/23 02:58:57;;;;;;;9.05;5.05;;;6.60;99.90;;;;;;5053720;28;20455;-67
2022/01/23 03:01:27;;;;;;;8.93;4.18;;;6.70;99.90;;;;;;5039200;28;20047;-70
2022/01/23 03:03:59;;;;;;;13.18;5.20;;;6.70;99.90;;;;;;5051771;28;20052;-67
2022/01/23 03:14:21;;;;;;;9.05;4.72;;;6.60;99.90;;;;;;5049688;28;20405;-67
2022/01/23 03:30:36;;;;;;;12.85;5.25;;;6.60;99.90;;;;;;5046352;28;20052;-67
2022/01/23 03:33:02;;;;;;;8.90;4.70;;;6.60;99.90;;;;;;5049669;28;20056;-68
2022/01/23 03:35:28;;;;;;;9.57;4.60;;;6.60;99.90;;;;;;5050049;28;20117;-67
2022/01/23 03:37:54;;;;;;;10.18;4.88;;;6.60;99.90;;;;;;5050179;28;20130;-68
2022/01/23 03:40:19;;;;;;;8.63;4.75;;;6.60;99.90;;;;;;5050297;28;20045;-68
2022/01/23 03:42:48;;;;;;;12.88;5.22;;;6.60;99.90;;;;;;5048932;28;20049;-67
2022/01/23 03:45:43;;;;;;;9.40;4.53;;;6.50;99.90;;;;;;5049861;28;20143;-68
2022/01/23 03:50:52;;;;;;;8.00;4.30;;;6.60;99.90;;;;;;5029603;28;20053;-68
2022/01/23 03:53:18;;;;;;;11.20;4.80;;;6.60;99.90;;;;;;5049757;28;20107;-68
2022/01/23 03:55:44;;;;;;;12.07;5.13;;;6.70;99.90;;;;;;5047404;28;20154;-68
2022/01/23 03:58:10;;;;;;;10.35;4.93;;;6.70;99.90;;;;;;5048847;28;20044;-68
2022/01/23 04:00:36;;;;;;;13.90;5.15;;;6.70;99.90;;;;;;5048306;28;20052;-68
2022/01/23 04:03:02;;;;;;;9.88;4.75;;;6.70;99.90;;;;;;5048914;28;20083;-68
2022/01/23 04:05:28;;;;;;;10.63;5.07;;;6.70;99.90;;;;;;5048039;28;20084;-68
2022/01/23 04:07:54;;;;;;;8.23;4.85;;;6.70;99.90;;;;;;5049531;28;20133;-67
2022/01/23 04:10:22;;;;;;;11.23;4.70;;;6.70;99.90;;;;;;5048396;28;20049;-68
2022/01/23 04:15:28;;;;;;;13.52;5.53;;;6.70;99.90;;;;;;5055102;28;20077;-67
2022/01/23 04:20:45;;;;;;;10.68;5.55;;;5.50;99.90;;;;;;5049147;28;20087;-67
2022/01/23 04:45:26;;;;;;;10.45;5.38;;;6.60;99.90;;;;;;5047155;28;20053;-68
2022/01/23 05:06:29;;;;;;;10.52;5.85;;;6.50;99.90;;;;;;5048415;28;20090;-70
2022/01/23 05:08:55;;;;;;;11.40;5.70;;;6.50;99.90;;;;;;5047676;28;20519;-68
2022/01/23 05:11:21;;;;;;;14.77;5.45;;;6.50;99.90;;;;;;5048391;28;20136;-69
2022/01/23 05:13:47;;;;;;;10.57;5.63;;;6.50;99.90;;;;;;5046480;28;20053;-69
2022/01/23 05:16:13;;;;;;;10.20;5.65;;;6.40;99.90;;;;;;5049256;28;20041;-70
2022/01/23 05:18:39;;;;;;;11.30;5.82;;;6.40;99.90;;;;;;5048041;28;20051;-69
2022/01/23 05:21:42;;;;;;;12.52;6.72;;;6.40;99.90;;;;;;5047249;28;20513;-69
2022/01/23 05:24:02;;;;;;;16.10;6.40;;;6.40;99.90;;;;;;5033033;28;20061;-69
2022/01/23 05:26:28;;;;;;;12.30;5.95;;;6.40;99.90;;;;;;5047243;28;20044;-69
2022/01/23 05:28:54;;;;;;;10.80;5.93;;;6.50;99.90;;;;;;5047518;28;20040;-69
2022/01/23 05:31:19;;;;;;;10.07;5.80;;;6.40;99.90;;;;;;5047461;28;20537;-68
2022/01/23 05:33:45;;;;;;;10.27;5.53;;;6.40;99.90;;;;;;5034876;28;20048;-69
2022/01/23 05:36:10;;;;;;;13.48;5.97;;;6.40;99.90;;;;;;5042830;28;20481;-69
2022/01/23 05:38:36;;;;;;;10.68;5.57;;;6.50;99.90;;;;;;5048053;28;20037;-68
2022/01/23 05:41:02;;;;;;;9.55;5.20;;;6.50;99.90;;;;;;5047316;28;20432;-69
2022/01/23 05:43:27;;;;;;;12.93;5.70;;;6.50;99.90;;;;;;5047816;28;20178;-69
2022/01/23 05:45:53;;;;;;;13.13;6.15;;;6.50;99.90;;;;;;5047144;28;20606;-69
2022/01/23 05:48:20;;;;;;;11.63;6.10;;;6.50;99.90;;;;;;5050275;28;20075;-69
2022/01/23 05:50:47;;;;;;;12.40;6.15;;;6.50;99.90;;;;;;5048306;28;20048;-68
2022/01/23 05:53:13;;;;;;;12.38;5.97;;;6.50;99.90;;;;;;5047625;28;20085;-69
2022/01/23 05:55:39;;;;;;;11.05;6.00;;;6.50;99.90;;;;;;5046929;28;20085;-68
2022/01/23 05:58:04;;;;;;;10.65;5.53;;;6.50;99.90;;;;;;5045309;28;20048;-69
2022/01/23 06:00:30;;;;;;;10.60;5.63;;;6.50;99.90;;;;;;5042827;28;20102;-68
2022/01/23 06:02:56;;;;;;;10.43;5.72;;;6.50;99.90;;;;;;5038004;28;20377;-68
2022/01/23 06:05:22;;;;;;;9.15;5.82;;;6.50;99.90;;;;;;5048011;28;20053;-69
2022/01/23 06:07:50;;;;;;;10.27;5.80;;;6.50;99.90;;;;;;5047669;28;20036;-69
2022/01/23 06:10:22;;;;;;;14.15;6.35;;;6.50;99.90;;;;;;5046500;28;20052;-69
2022/01/23 06:12:48;;;;;;;9.80;5.70;;;6.40;99.90;;;;;;5047205;28;20143;-69
2022/01/23 06:15:15;;;;;;;10.00;6.05;;;6.50;99.90;;;;;;5047374;28;20059;-69
2022/01/23 06:17:42;;;;;;;12.13;6.00;;;6.40;99.90;;;;;;5050559;28;20081;-69
2022/01/23 06:20:10;;;;;;;10.75;6.38;;;6.40;99.90;;;;;;5042823;28;20040;-69
2022/01/23 06:22:36;;;;;;;10.48;6.28;;;6.50;99.90;;;;;;5046961;28;20049;-69
2022/01/23 06:25:04;;;;;;;11.50;6.50;;;6.50;99.90;;;;;;5046145;28;20087;-69
2022/01/23 06:27:29;;;;;;;10.45;6.43;;;6.50;99.90;;;;;;5047472;28;20045;-69
2022/01/23 06:29:55;;;;;;;16.67;6.72;;;6.50;99.90;;;;;;5047673;28;20052;-69
2022/01/23 06:32:21;;;;;;;15.52;7.38;;;6.50;99.90;;;;;;5047752;28;20049;-68
2022/01/23 06:34:47;;;;;;;10.27;6.47;;;6.40;99.90;;;;;;5044055;28;20060;-68
2022/01/23 06:37:13;;;;;;;14.35;6.30;;;7.50;99.90;;;;;;5045674;28;20041;-69
2022/01/23 06:39:38;;;;;;;12.90;6.85;;;6.40;99.90;;;;;;5045437;28;20064;-68
2022/01/23 06:42:05;;;;;;;11.00;6.53;;;6.40;99.90;;;;;;5046141;28;20045;-68
2022/01/23 06:44:30;;;;;;;11.88;6.60;;;6.40;99.90;;;;;;5047200;28;20037;-69
2022/01/23 06:46:56;;;;;;;13.15;6.70;;;6.40;99.90;;;;;;5045877;28;20045;-69
2022/01/23 06:49:22;;;;;;;11.35;6.65;;;6.40;99.90;;;;;;5034642;28;20033;-69
2022/01/23 06:51:49;;;;;;;13.07;6.45;;;6.40;99.90;;;;;;5050871;28;20060;-69
2022/01/23 06:54:15;;;;;;;11.55;6.93;;;6.40;99.90;;;;;;5050671;28;20121;-69
2022/01/23 06:56:41;;;;;;;10.25;6.25;;;6.40;99.90;;;;;;5049673;28;20107;-69
2022/01/23 06:59:07;;;;;;;10.93;6.00;;;6.30;99.90;;;;;;5048230;28;20061;-69
2022/01/23 07:01:32;;;;;;;10.48;6.25;;;6.10;99.90;;;;;;5049263;28;20426;-67
2022/01/23 07:03:58;;;;;;;10.52;6.63;;;6.40;99.90;;;;;;5049899;28;20073;-70
2022/01/23 07:06:24;;;;;;;11.63;6.80;;;6.40;99.90;;;;;;5050958;28;20041;-69
2022/01/23 07:08:49;;;;;;;11.65;6.40;;;6.40;99.90;;;;;;5050071;28;20041;-71
2022/01/23 07:11:15;;;;;;;10.15;6.78;;;6.50;99.90;;;;;;5041881;28;20053;-67
2022/01/23 07:13:40;;;;;;;12.90;6.55;;;6.40;99.90;;;;;;5039120;28;20045;-67
2022/01/23 07:16:06;;;;;;;12.55;6.78;;;6.40;99.90;;;;;;5050888;28;20044;-67
2022/01/23 07:18:33;;;;;;;10.82;6.65;;;6.40;99.90;;;;;;5065539;28;20048;-67
2022/01/23 07:20:58;;;;;;;11.65;7.03;;;6.40;99.90;;;;;;5049829;28;20045;-67
2022/01/23 07:23:24;;;;;;;12.73;7.38;;;6.30;99.90;;;;;;5047688;28;20534;-67
2022/01/23 07:25:51;;;;;;;12.60;7.22;;;6.30;99.90;;;;;;5048380;28;20075;-65
2022/01/23 07:28:20;;;;;;;12.43;7.22;;;6.30;99.90;;;;;;5049999;28;20033;-67
2022/01/23 07:30:56;;;;;;;11.20;7.10;;;6.70;99.90;;;;;;5052020;28;20134;-65
2022/01/23 07:33:21;;;;;;;10.82;6.45;;;6.20;99.90;;;;;;5052030;28;20052;-65
2022/01/23 07:35:47;;;;;;;12.02;6.80;;;6.10;99.90;;;;;;5049506;28;20049;-65
2022/01/23 07:38:16;;;;;;;11.05;7.20;;;6.10;99.90;;;;;;5049381;28;20036;-67
2022/01/23 07:40:44;;;;;;;14.13;8.07;;;6.10;99.90;;;;;;5048153;28;20049;-66
2022/01/23 07:43:10;;;;;;;12.07;7.28;;;6.10;99.90;;;;;;5049461;28;20247;-68
2022/01/23 07:45:36;;;;;;;11.20;6.90;;;6.00;99.90;;;;;;5050431;28;20167;-65
2022/01/23 07:48:02;;;;;;;11.43;7.43;;;6.00;99.90;;;;;;5046312;28;20124;-65
2022/01/23 07:50:27;;;;;;;12.23;7.15;;;5.90;99.90;;;;;;5048824;28;20041;-67
2022/01/23 07:52:53;;;;;;;11.20;7.32;;;5.90;99.90;;;;;;5049516;28;20822;-67
2022/01/23 07:55:18;;;;;;;12.52;7.35;;;5.90;99.90;;;;;;5048424;28;20080;-65
2022/01/23 07:57:45;;;;;;;11.20;7.35;;;5.90;99.90;;;;;;5050560;28;20516;-65
2022/01/23 08:00:11;;;;;;;12.23;7.00;;;6.00;99.90;;;;;;5049011;28;20374;-65
2022/01/23 08:02:37;;;;;;;10.93;6.82;;;6.00;99.90;;;;;;5049255;28;20071;-67
2022/01/23 08:05:04;;;;;;;12.60;6.95;;;6.00;99.90;;;;;;5064953;28;20091;-68
2022/01/23 08:10:02;;;;;;;11.02;6.40;;;6.10;99.90;;;;;;5048579;28;20124;-67
2022/01/23 08:12:29;;;;;;;10.85;6.25;;;6.00;99.90;;;;;;5050250;28;20076;-64
2022/01/23 08:14:56;;;;;;;11.45;6.18;;;6.10;99.90;;;;;;5048509;28;20454;-65
2022/01/23 08:17:26;;;;;;;9.75;5.70;;;6.10;99.90;;;;;;5050044;28;20048;-65
2022/01/23 08:19:57;;;;;;;10.07;5.93;;;6.10;99.90;;;;;;5049572;28;20041;-65
2022/01/23 08:22:24;;;;;;;9.57;5.70;;;6.10;99.90;;;;;;5049695;28;20509;-64
2022/01/23 08:24:51;;;;;;;7.75;5.32;;;6.20;99.90;;;;;;5047415;28;20037;-65
2022/01/23 08:27:16;;;;;;;9.45;5.88;;;6.20;99.90;;;;;;5049937;28;20055;-66
2022/01/23 08:29:42;;;;;;;8.02;5.15;;;6.30;99.90;;;;;;5047654;28;20119;-67
2022/01/23 08:32:09;;;;;;;9.05;5.45;;;6.50;99.90;;;;;;5049272;28;20045;-65
2022/01/23 08:34:35;;;;;;;9.63;5.13;;;6.40;99.90;;;;;;5048763;28;20516;-67
2022/01/23 08:37:02;;;;;;;7.80;4.72;;;6.50;99.90;;;;;;5047981;28;20486;-65
2022/01/23 08:39:30;;;;;;;8.60;5.35;;;6.50;99.90;;;;;;5049104;28;20040;-65
2022/01/23 08:41:56;;;;;;;8.68;5.55;;;6.60;99.90;;;;;;5030595;28;20045;-65
2022/01/23 08:44:28;;;;;;;7.30;5.13;;;6.60;99.90;;;;;;5031083;28;20091;-65
2022/01/23 08:46:55;;;;;;;9.77;5.75;;;6.60;99.90;;;;;;5047175;28;20040;-65
2022/01/23 08:49:23;;;;;;;9.27;6.03;;;6.70;99.90;;;;;;5047153;28;20099;-65
2022/01/23 08:51:50;;;;;;;8.77;5.50;;;6.60;99.90;;;;;;5048672;28;20060;-65
2022/01/23 08:54:15;;;;;;;9.40;5.45;;;6.70;99.90;;;;;;5049635;28;20092;-65
2022/01/23 08:56:42;;;;;;;8.00;4.97;;;6.70;99.90;;;;;;5041836;28;20084;-65
2022/01/23 08:59:08;;;;;;;7.25;5.28;;;6.70;99.90;;;;;;5028520;28;20042;-65
2022/01/23 09:01:34;;;;;;;7.40;5.20;;;6.70;99.90;;;;;;5044583;28;20260;-66
2022/01/23 09:04:01;;;;;;;8.60;5.45;;;6.80;99.90;;;;;;5042789;28;20060;-65
2022/01/23 09:06:26;;;;;;;6.80;4.82;;;6.80;99.90;;;;;;5048988;28;20102;-65
2022/01/23 09:08:53;;;;;;;8.80;5.53;;;6.80;99.90;;;;;;5048731;28;20414;-65
2022/01/23 09:11:37;;;;;;;8.45;5.53;;;6.80;99.90;;;;;;5047886;28;20520;-65
2022/01/23 09:14:07;;;;;;;7.95;5.55;;;6.80;99.90;;;;;;5048701;28;20481;-65
2022/01/23 09:16:38;;;;;;;7.93;4.78;;;6.80;99.90;;;;;;5034880;28;20048;-65
2022/01/23 09:19:04;;;;;;;7.10;4.85;;;6.80;99.90;;;;;;5051662;28;20052;-65
2022/01/23 09:21:30;;;;;;;7.00;4.90;;;6.80;99.90;;;;;;5047586;28;20056;-65
2022/01/23 09:23:56;;;;;;;8.07;5.38;;;6.80;99.90;;;;;;5048147;28;20057;-65
2022/01/23 09:26:23;;;;;;;8.10;5.03;;;6.90;99.90;;;;;;5045471;28;20039;-65
2022/01/23 09:28:50;;;;;;;8.48;5.38;;;6.80;99.90;;;;;;5047401;28;20053;-65
2022/01/23 09:31:26;;;;;;;8.15;5.30;;;7.70;99.90;;;;;;5048028;28;20045;-65
2022/01/23 09:33:52;;;;;;;8.52;5.60;;;6.90;99.90;;;;;;5045363;28;20045;-66
2022/01/23 09:36:18;;;;;;;7.40;5.00;;;6.90;99.90;;;;;;5047262;28;20040;-65
2022/01/23 09:38:43;;;;;;;6.93;4.60;;;6.90;99.90;;;;;;5046881;28;20036;-65
2022/01/23 09:41:10;;;;;;;6.85;4.50;;;7.00;99.90;;;;;;5045323;28;20098;-65
2022/01/23 09:43:39;;;;;;;7.30;4.50;;;7.20;99.90;;;;;;5049859;28;20045;-65
2022/01/23 09:46:07;;;;;;;6.85;4.38;;;7.40;99.90;;;;;;5034968;28;20049;-65
2022/01/23 09:48:34;;;;;;;6.72;4.35;;;7.50;99.90;;;;;;5036486;28;20048;-66
2022/01/23 09:51:01;;;;;;;6.75;4.53;;;7.60;99.90;;;;;;5048579;28;20064;-66
2022/01/23 09:53:28;;;;;;;7.65;4.50;;;7.60;99.90;;;;;;5046819;28;20049;-65
2022/01/23 09:55:59;;;;;;;7.28;4.35;;;7.70;99.90;;;;;;5047575;28;20057;-65
2022/01/23 09:58:25;;;;;;;7.68;4.53;;;7.80;99.90;;;;;;5045751;28;20053;-65
2022/01/23 10:00:52;;;;;;;6.30;4.10;;;7.90;99.90;;;;;;5064800;28;20423;-65
2022/01/23 10:03:19;;;;;;;7.30;4.18;;;7.90;99.90;;;;;;5046886;28;20045;-65
2022/01/23 10:05:52;;;;;;;5.28;3.58;;;7.90;99.90;;;;;;5047719;28;20083;-65
2022/01/23 10:08:18;;;;;;;6.75;3.70;;;7.80;99.90;;;;;;5047223;28;20049;-64
2022/01/23 10:10:50;;;;;;;6.60;3.95;;;7.80;99.90;;;;;;5046719;28;20103;-65
2022/01/23 10:13:16;;;;;;;5.93;3.47;;;7.80;99.90;;;;;;5046343;28;20055;-65
2022/01/23 10:15:42;;;;;;;5.78;3.70;;;7.70;99.90;;;;;;5048035;28;20041;-64
2022/01/23 10:18:07;;;;;;;5.25;3.65;;;7.80;99.90;;;;;;5047671;28;20041;-65
2022/01/23 10:20:33;;;;;;;5.15;3.53;;;7.70;99.90;;;;;;5055953;28;20481;-65
2022/01/23 10:22:59;;;;;;;5.20;3.33;;;7.70;99.90;;;;;;5048520;28;20099;-65
2022/01/23 10:25:28;;;;;;;4.53;3.08;;;7.70;99.90;;;;;;5052358;28;20449;-66
2022/01/23 10:28:03;;;;;;;4.70;3.22;;;7.70;99.90;;;;;;5050460;28;20100;-66
2022/01/23 10:31:03;;;;;;;5.05;2.45;;;7.70;99.90;;;;;;5066811;28;20127;-64
2022/01/23 10:33:34;;;;;;;4.40;2.58;;;7.70;99.90;;;;;;5047600;28;20052;-65
2022/01/23 10:36:08;;;;;;;4.45;2.53;;;7.70;99.90;;;;;;5050880;28;20501;-65
2022/01/23 10:38:44;;;;;;;4.15;2.70;;;7.70;99.90;;;;;;5050964;28;20102;-65
2022/01/23 10:46:42;;;;;;;4.93;2.53;;;7.70;99.90;;;;;;5051968;28;20132;-65
2022/01/23 10:49:07;;;;;;;4.70;2.60;;;7.70;99.90;;;;;;5050912;28;20468;-65
2022/01/23 10:51:37;;;;;;;5.47;2.80;;;7.80;99.90;;;;;;5050706;28;20055;-65
2022/01/23 10:54:14;;;;;;;4.03;2.70;;;7.80;99.90;;;;;;5051673;28;20067;-64
2022/01/23 10:56:52;;;;;;;5.10;2.85;;;7.80;99.90;;;;;;5032962;28;20061;-65
2022/01/23 10:59:17;;;;;;;5.70;2.83;;;7.80;99.90;;;;;;5049893;28;20087;-65
2022/01/23 11:02:21;;;;;;;4.35;2.85;;;7.80;99.90;;;;;;5056621;28;20080;-65
2022/01/23 11:04:54;;;;;;;5.40;2.85;;;7.90;99.90;;;;;;5019309;28;20057;-65
2022/01/23 11:07:21;;;;;;;3.92;2.60;;;7.90;99.90;;;;;;5049951;28;20123;-65
2022/01/23 11:09:47;;;;;;;4.30;2.78;;;7.90;99.90;;;;;;5051133;28;20099;-65
2022/01/23 11:12:43;;;;;;;4.95;2.85;;;7.90;99.90;;;;;;5047355;28;20067;-67
2022/01/23 11:18:01;;;;;;;4.00;2.53;;;7.90;99.90;;;;;;5048104;28;20052;-67
2022/01/23 11:20:35;;;;;;;4.57;3.08;;;7.90;99.90;;;;;;5050645;28;20033;-67
2022/01/23 11:23:10;;;;;;;3.60;2.50;;;8.00;99.90;;;;;;5050505;28;20517;-65
2022/01/23 11:25:37;;;;;;;5.35;3.10;;;8.00;99.90;;;;;;5050429;28;20428;-65
2022/01/23 11:28:04;;;;;;;4.40;2.65;;;8.00;99.90;;;;;;5049610;28;20045;-66
2022/01/23 11:30:46;;;;;;;4.25;2.47;;;8.00;99.90;;;;;;5051423;28;20114;-65
2022/01/23 11:33:16;;;;;;;3.75;2.33;;;8.00;99.90;;;;;;5047878;28;20048;-67
2022/01/23 11:35:42;;;;;;;3.92;2.50;;;8.10;99.90;;;;;;5049324;28;20041;-66
2022/01/23 11:38:16;;;;;;;4.18;2.70;;;8.10;99.90;;;;;;5049507;28;20122;-66
2022/01/23 11:54:39;;;;;;;4.40;2.80;;;8.10;99.90;;;;;;5033427;28;20096;-70
2022/01/23 11:57:25;;;;;;;5.97;3.00;;;8.10;99.90;;;;;;5032968;28;20052;-70
2022/01/23 11:59:50;;;;;;;4.07;2.88;;;8.10;99.90;;;;;;5045714;28;20719;-71
2022/01/23 12:02:26;;;;;;;5.72;2.70;;;8.20;99.90;;;;;;5044815;28;20088;-71
2022/01/23 12:05:10;;;;;;;5.35;2.60;;;8.20;99.90;;;;;;5028142;28;20040;-71
2022/01/23 12:07:37;;;;;;;4.85;2.80;;;8.20;99.90;;;;;;5045722;28;20055;-71
2022/01/23 12:10:13;;;;;;;6.47;2.72;;;8.20;99.90;;;;;;5045967;28;20103;-71
2022/01/23 12:12:42;;;;;;;3.80;2.58;;;8.30;99.90;;;;;;5037644;28;20072;-70
2022/01/23 12:18:25;;;;;;;5.28;2.60;;;8.30;99.90;;;;;;5044766;28;20582;-70
2022/01/23 12:20:52;;;;;;;4.78;2.60;;;8.40;99.90;;;;;;5043801;28;20048;-70
2022/01/23 12:23:19;;;;;;;4.75;2.42;;;8.30;99.90;;;;;;5044728;28;20132;-69
2022/01/23 12:25:46;;;;;;;3.55;2.30;;;8.40;99.90;;;;;;5045197;28;20122;-69
2022/01/23 12:28:32;;;;;;;3.55;2.35;;;8.30;99.90;;;;;;5044386;28;20045;-69
2022/01/23 12:31:14;;;;;;;4.30;2.67;;;8.30;99.90;;;;;;5044819;28;20182;-71
2022/01/23 12:33:39;;;;;;;4.80;2.53;;;8.30;99.90;;;;;;5043549;28;20041;-70
2022/01/23 12:36:20;;;;;;;3.63;2.50;;;8.30;99.90;;;;;;5043553;28;20049;-69
2022/01/23 12:39:13;;;;;;;4.82;2.42;;;8.80;99.90;;;;;;5044478;28;20476;-69
2022/01/23 12:41:50;;;;;;;3.80;2.47;;;8.30;99.90;;;;;;5028872;28;20045;-65
2022/01/23 12:44:28;;;;;;;4.00;2.33;;;8.20;99.90;;;;;;5052858;28;20414;-65
2022/01/23 12:46:59;;;;;;;4.38;2.35;;;8.30;99.90;;;;;;5049783;28;20446;-65
2022/01/23 12:49:48;;;;;;;5.28;2.90;;;8.30;99.90;;;;;;5046218;28;20132;-65
2022/01/23 12:52:17;;;;;;;4.60;2.50;;;8.30;99.90;;;;;;5047903;28;20489;-65
2022/01/23 12:54:52;;;;;;;5.05;2.90;;;8.30;99.90;;;;;;5047488;28;20037;-65
2022/01/23 12:57:32;;;;;;;5.13;2.90;;;8.30;99.90;;;;;;5047538;28;20530;-65
2022/01/23 13:00:00;;;;;;;5.15;2.45;;;8.20;99.90;;;;;;5034873;28;20136;-65
2022/01/23 13:02:33;;;;;;;3.75;2.50;;;8.20;99.90;;;;;;5047544;28;20449;-65
2022/01/23 13:04:59;;;;;;;5.45;2.53;;;8.20;99.90;;;;;;5047517;28;20037;-65
2022/01/23 13:11:21;;;;;;;5.15;2.65;;;8.30;99.90;;;;;;5047989;28;20045;-66
2022/01/23 13:18:04;;;;;;;4.65;2.88;;;8.20;99.90;;;;;;5036944;28;20143;-66
2022/01/23 13:31:47;;;;;;;5.57;2.93;;;8.20;99.90;;;;;;5027874;28;20100;-66
2022/01/23 13:34:20;;;;;;;5.10;3.22;;;8.60;99.90;;;;;;5027424;28;20284;-66
2022/01/23 13:36:56;;;;;;;4.75;2.95;;;8.20;99.90;;;;;;5028543;28;20037;-66
2022/01/23 13:39:29;;;;;;;5.55;3.30;;;8.10;99.90;;;;;;5027873;28;20045;-66
2022/01/23 13:42:29;;;;;;;6.38;3.30;;;8.10;99.90;;;;;;5027835;28;20509;-66
2022/01/23 13:53:25;;;;;;;4.65;3.40;;;8.00;99.90;;;;;;5027447;28;20122;-66
2022/01/23 13:58:40;;;;;;;11.85;3.85;;;8.00;99.90;;;;;;5027301;28;20068;-66
2022/01/23 14:03:53;;;;;;;6.45;3.67;;;9.10;99.90;;;;;;5026506;28;20147;-66
2022/01/23 14:06:19;;;;;;;6.43;3.95;;;8.00;99.90;;;;;;5029129;28;20084;-66
2022/01/23 14:09:08;;;;;;;5.68;3.70;;;8.00;99.90;;;;;;5028539;28;20412;-66
2022/01/23 14:11:34;;;;;;;6.65;4.00;;;8.10;99.90;;;;;;5027603;28;20406;-66
2022/01/23 14:14:11;;;;;;;6.70;4.30;;;8.20;99.90;;;;;;5025743;28;20037;-66
2022/01/23 14:16:37;;;;;;;6.45;4.22;;;8.00;99.90;;;;;;5026679;28;20130;-66
2022/01/23 14:19:20;;;;;;;6.95;3.95;;;8.00;99.90;;;;;;5025470;28;20481;-66
2022/01/23 14:21:59;;;;;;;6.18;3.85;;;8.00;99.90;;;;;;5027865;28;20046;-66
2022/01/23 14:24:36;;;;;;;7.00;3.92;;;7.90;99.90;;;;;;5047915;28;20105;-66
2022/01/23 14:27:09;;;;;;;7.55;4.15;;;7.90;99.90;;;;;;5047904;28;20076;-66
2022/01/23 14:29:48;;;;;;;5.93;4.05;;;7.90;99.90;;;;;;5044652;28;20139;-66
2022/01/23 14:32:22;;;;;;;6.80;4.00;;;7.90;99.90;;;;;;5047801;28;20091;-67
2022/01/23 14:34:48;;;;;;;8.00;4.38;;;7.80;99.90;;;;;;5045513;28;20053;-67
2022/01/23 14:37:23;;;;;;;9.10;4.43;;;7.80;99.90;;;;;;5046677;28;20052;-66
2022/01/23 14:39:49;;;;;;;7.68;4.47;;;7.80;99.90;;;;;;5046426;28;20060;-66
2022/01/23 14:42:18;;;;;;;7.07;5.10;;;7.80;99.90;;;;;;5045792;28;20041;-67
2022/01/23 14:44:45;;;;;;;7.65;5.10;;;7.80;99.90;;;;;;5047024;28;20052;-65
2022/01/23 14:47:11;;;;;;;11.75;5.28;;;8.00;99.90;;;;;;5047584;28;20053;-65
2022/01/23 14:49:38;;;;;;;8.38;4.95;;;7.80;99.90;;;;;;5044534;28;20154;-65
2022/01/23 14:52:09;;;;;;;8.40;4.30;;;7.80;99.90;;;;;;5047372;28;20048;-65
2022/01/23 14:54:36;;;;;;;8.93;5.10;;;7.80;99.90;;;;;;5032376;28;20056;-67
2022/01/23 14:57:04;;;;;;;6.90;4.70;;;7.80;99.90;;;;;;5024924;28;20136;-65
2022/01/23 14:59:31;;;;;;;8.13;4.78;;;7.80;99.90;;;;;;5027290;28;20053;-66
2022/01/23 15:01:58;;;;;;;8.85;5.03;;;7.80;99.90;;;;;;5025872;28;20049;-66
2022/01/23 15:04:25;;;;;;;6.47;4.40;;;7.80;99.90;;;;;;5024755;28;20049;-65
2022/01/23 15:06:54;;;;;;;8.40;4.78;;;7.70;99.90;;;;;;5025758;28;20088;-66
2022/01/23 15:09:22;;;;;;;6.15;4.07;;;7.70;99.90;;;;;;5027914;28;20402;-66
2022/01/23 15:11:49;;;;;;;7.15;4.50;;;7.80;99.90;;;;;;5028273;28;20041;-66
2022/01/23 15:14:15;;;;;;;7.30;4.55;;;7.70;99.90;;;;;;5031011;28;20409;-65
2022/01/23 15:16:41;;;;;;;9.65;4.32;;;7.70;99.90;;;;;;5030479;28;20045;-65
2022/01/23 15:19:09;;;;;;;8.02;4.00;;;7.70;99.90;;;;;;5028017;28;20081;-66
2022/01/23 15:21:35;;;;;;;8.15;4.53;;;7.70;99.90;;;;;;5031311;28;20049;-65
2022/01/23 15:24:02;;;;;;;6.85;4.47;;;7.70;99.90;;;;;;5028482;28;20049;-66
2022/01/23 15:26:30;;;;;;;5.80;4.10;;;7.60;99.90;;;;;;5030775;28;20049;-65
2022/01/23 15:28:56;;;;;;;6.25;4.00;;;7.60;99.90;;;;;;5027897;28;20050;-65
2022/01/23 15:31:23;;;;;;;6.65;4.38;;;7.70;99.90;;;;;;5030555;28;20073;-67
2022/01/23 15:33:49;;;;;;;6.50;3.83;;;7.70;99.90;;;;;;5029675;28;20049;-67
2022/01/23 15:36:14;;;;;;;6.97;4.05;;;8.10;99.90;;;;;;5030836;28;20505;-67
2022/01/23 15:38:44;;;;;;;6.53;2.97;;;7.60;99.90;;;;;;5030137;28;20552;-65
2022/01/23 15:41:11;;;;;;;6.78;3.75;;;8.10;99.90;;;;;;5029663;28;20057;-65
2022/01/23 15:43:37;;;;;;;8.35;4.05;;;7.70;99.90;;;;;;5041117;28;20041;-65
2022/01/23 15:46:03;;;;;;;6.93;3.90;;;7.60;99.90;;;;;;5049603;28;20045;-65
2022/01/23 15:48:30;;;;;;;8.73;4.15;;;7.70;99.90;;;;;;5065074;28;20045;-65
2022/01/23 15:51:00;;;;;;;6.63;3.97;;;7.60;99.90;;;;;;5049238;28;20041;-66
2022/01/23 15:53:25;;;;;;;6.72;3.90;;;7.60;99.90;;;;;;5050028;28;20129;-65
2022/01/23 15:55:51;;;;;;;6.78;4.57;;;7.50;99.90;;;;;;5049261;28;20052;-66
2022/01/23 15:58:17;;;;;;;10.45;4.47;;;7.60;99.90;;;;;;5049580;28;20124;-66
2022/01/23 16:00:43;;;;;;;6.38;4.22;;;7.50;99.90;;;;;;5047575;28;20124;-66
2022/01/23 16:03:08;;;;;;;6.63;4.13;;;7.50;99.90;;;;;;5048264;28;20060;-66
2022/01/23 16:05:35;;;;;;;8.32;4.20;;;7.50;99.90;;;;;;5049935;28;20053;-65
2022/01/23 16:08:00;;;;;;;8.75;4.25;;;7.50;99.90;;;;;;5049119;28;20044;-68
2022/01/23 16:10:26;;;;;;;7.35;4.00;;;7.50;99.90;;;;;;5050316;28;20045;-66
2022/01/23 16:12:53;;;;;;;7.82;3.70;;;7.50;99.90;;;;;;5048381;28;20049;-66
2022/01/23 16:15:20;;;;;;;6.13;4.10;;;7.40;99.90;;;;;;5047038;28;20361;-65
2022/01/23 16:17:47;;;;;;;8.88;4.05;;;7.50;99.90;;;;;;5030925;28;20800;-66
2022/01/23 16:20:14;;;;;;;6.47;3.88;;;7.50;99.90;;;;;;5047061;28;20087;-66
2022/01/23 16:22:40;;;;;;;7.97;4.35;;;7.50;99.90;;;;;;5040079;28;20087;-66
2022/01/23 16:25:07;;;;;;;10.02;4.13;;;7.50;99.90;;;;;;5041030;28;20045;-65
2022/01/23 16:27:33;;;;;;;6.15;3.92;;;7.40;99.90;;;;;;5047090;28;20053;-65